sensor_id;sensor_type;location;lat;lon;timestamp;P1;durP1;ratioP1;P2;durP2;ratioP2
23476;SDS011;11911;50.768;13.150;2022-08-19T04:01:32;14.60;;;13.20;;
23476;SDS011;11911;50.768;13.150;2022-08-19T04:03:58;34.73;;;14.80;;
23476;SDS011;11911;50.768;13.150;2022-08-19T04:06:28;17.33;;;15.43;;
23476;SDS011;11911;50.768;13.150;2022-08-19T04:08:56;21.30;;;16.90;;
23476;SDS011;11911;50.768;13.150;2022-08-19T04:11:26;20.47;;;18.43;;
23476;SDS011;11911;50.768;13.150;2022-08-19T04:13:54;22.60;;;18.80;;
23476;SDS011;11911;50.768;13.150;2022-08-19T04:16:21;19.90;;;17.90;;
23476;SDS011;11911;50.768;13.150;2022-08-19T04:18:48;15.27;;;13.70;;
23476;SDS011;11911;50.768;13.150;2022-08-19T04:21:18;27.83;;;18.97;;
23476;SDS011;11911;50.768;13.150;2022-08-19T04:23:45;20.77;;;18.77;;
23476;SDS011;11911;50.768;13.150;2022-08-19T04:26:12;22.43;;;20.00;;
23476;SDS011;11911;50.768;13.150;2022-08-19T04:28:49;22.67;;;20.27;;
23476;SDS011;11911;50.768;13.150;2022-08-19T04:31:18;22.43;;;18.90;;
23476;SDS011;11911;50.768;13.150;2022-08-19T04:33:44;19.03;;;17.13;;
23476;SDS011;11911;50.768;13.150;2022-08-19T04:36:19;21.33;;;19.33;;
23476;SDS011;11911;50.768;13.150;2022-08-19T04:38:47;24.13;;;21.63;;
23476;SDS011;11911;50.768;13.150;2022-08-19T04:41:14;26.10;;;21.60;;
23476;SDS011;11911;50.768;13.150;2022-08-19T04:43:58;30.23;;;23.40;;
23476;SDS011;11911;50.768;13.150;2022-08-19T04:46:24;37.13;;;24.53;;
23476;SDS011;11911;50.768;13.150;2022-08-19T04:48:50;32.50;;;23.07;;
23476;SDS011;11911;50.768;13.150;2022-08-19T04:51:15;28.93;;;22.80;;
23476;SDS011;11911;50.768;13.150;2022-08-19T04:53:42;28.10;;;19.93;;
23476;SDS011;11911;50.768;13.150;2022-08-19T04:56:09;20.33;;;18.20;;
23476;SDS011;11911;50.768;13.150;2022-08-19T04:58:36;16.17;;;13.77;;
23476;SDS011;11911;50.768;13.150;2022-08-19T05:01:03;13.30;;;12.07;;
23476;SDS011;11911;50.768;13.150;2022-08-19T05:03:29;10.43;;;9.37;;
23476;SDS011;11911;50.768;13.150;2022-08-19T05:05:58;9.87;;;8.87;;
23476;SDS011;11911;50.768;13.150;2022-08-19T05:08:32;10.00;;;9.00;;
23476;SDS011;11911;50.768;13.150;2022-08-19T05:10:58;11.87;;;10.67;;
23476;SDS011;11911;50.768;13.150;2022-08-19T05:13:25;11.43;;;10.33;;
23476;SDS011;11911;50.768;13.150;2022-08-19T05:15:57;13.00;;;11.70;;
23476;SDS011;11911;50.768;13.150;2022-08-19T05:18:23;13.37;;;10.70;;
23476;SDS011;11911;50.768;13.150;2022-08-19T05:21:10;11.67;;;10.57;;
23476;SDS011;11911;50.768;13.150;2022-08-19T05:23:55;11.20;;;10.07;;
23476;SDS011;11911;50.768;13.150;2022-08-19T05:26:21;11.60;;;10.40;;
23476;SDS011;11911;50.768;13.150;2022-08-19T05:28:46;11.43;;;10.33;;
23476;SDS011;11911;50.768;13.150;2022-08-19T05:31:12;10.30;;;9.30;;
23476;SDS011;11911;50.768;13.150;2022-08-19T05:33:37;10.83;;;9.83;;
23476;SDS011;11911;50.768;13.150;2022-08-19T05:36:04;11.00;;;9.87;;
23476;SDS011;11911;50.768;13.150;2022-08-19T05:38:32;11.33;;;10.30;;
23476;SDS011;11911;50.768;13.150;2022-08-19T05:40:58;15.33;;;10.60;;
23476;SDS011;11911;50.768;13.150;2022-08-19T05:43:24;14.50;;;10.77;;
23476;SDS011;11911;50.768;13.150;2022-08-19T05:45:50;10.63;;;9.63;;
23476;SDS011;11911;50.768;13.150;2022-08-19T05:48:16;10.47;;;9.47;;
23476;SDS011;11911;50.768;13.150;2022-08-19T05:50:45;10.70;;;9.57;;
23476;SDS011;11911;50.768;13.150;2022-08-19T05:53:11;11.87;;;10.53;;
23476;SDS011;11911;50.768;13.150;2022-08-19T05:55:37;10.93;;;9.87;;
23476;SDS011;11911;50.768;13.150;2022-08-19T05:58:05;10.13;;;8.83;;
23476;SDS011;11911;50.768;13.150;2022-08-19T06:00:32;12.10;;;10.90;;
23476;SDS011;11911;50.768;13.150;2022-08-19T06:02:58;11.43;;;10.23;;
23476;SDS011;11911;50.768;13.150;2022-08-19T06:05:28;14.37;;;11.20;;
23476;SDS011;11911;50.768;13.150;2022-08-19T06:07:54;12.63;;;10.33;;
23476;SDS011;11911;50.768;13.150;2022-08-19T06:10:19;18.37;;;12.27;;
23476;SDS011;11911;50.768;13.150;2022-08-19T06:12:46;18.10;;;12.20;;
23476;SDS011;11911;50.768;13.150;2022-08-19T06:15:13;13.43;;;11.90;;
23476;SDS011;11911;50.768;13.150;2022-08-19T06:17:39;14.03;;;12.53;;
23476;SDS011;11911;50.768;13.150;2022-08-19T06:20:07;15.80;;;13.00;;
23476;SDS011;11911;50.768;13.150;2022-08-19T06:22:47;18.53;;;12.73;;
23476;SDS011;11911;50.768;13.150;2022-08-19T06:25:16;14.37;;;11.53;;
23476;SDS011;11911;50.768;13.150;2022-08-19T06:27:42;15.60;;;12.23;;
23476;SDS011;11911;50.768;13.150;2022-08-19T06:30:09;13.70;;;12.30;;
23476;SDS011;11911;50.768;13.150;2022-08-19T06:32:36;15.10;;;12.70;;
23476;SDS011;11911;50.768;13.150;2022-08-19T06:35:02;15.07;;;13.20;;
23476;SDS011;11911;50.768;13.150;2022-08-19T06:37:28;19.00;;;14.50;;
23476;SDS011;11911;50.768;13.150;2022-08-19T06:39:54;23.73;;;14.53;;
23476;SDS011;11911;50.768;13.150;2022-08-19T06:42:19;22.80;;;15.07;;
23476;SDS011;11911;50.768;13.150;2022-08-19T06:44:45;23.30;;;15.23;;
23476;SDS011;11911;50.768;13.150;2022-08-19T06:47:14;25.67;;;17.37;;
23476;SDS011;11911;50.768;13.150;2022-08-19T06:49:43;28.30;;;18.63;;
23476;SDS011;11911;50.768;13.150;2022-08-19T06:52:09;38.43;;;20.20;;
23476;SDS011;11911;50.768;13.150;2022-08-19T06:54:39;38.03;;;20.97;;
23476;SDS011;11911;50.768;13.150;2022-08-19T06:57:07;32.97;;;19.50;;
23476;SDS011;11911;50.768;13.150;2022-08-19T06:59:34;34.33;;;19.43;;
23476;SDS011;11911;50.768;13.150;2022-08-19T07:02:01;37.20;;;19.23;;
23476;SDS011;11911;50.768;13.150;2022-08-19T07:04:30;29.67;;;21.00;;
23476;SDS011;11911;50.768;13.150;2022-08-19T07:07:01;30.30;;;19.73;;
23476;SDS011;11911;50.768;13.150;2022-08-19T07:09:32;27.37;;;19.50;;
23476;SDS011;11911;50.768;13.150;2022-08-19T07:11:58;22.10;;;19.43;;
23476;SDS011;11911;50.768;13.150;2022-08-19T07:14:25;24.20;;;18.20;;
23476;SDS011;11911;50.768;13.150;2022-08-19T07:16:52;21.03;;;17.83;;
23476;SDS011;11911;50.768;13.150;2022-08-19T07:19:21;22.87;;;17.93;;
23476;SDS011;11911;50.768;13.150;2022-08-19T07:21:50;25.60;;;18.70;;
23476;SDS011;11911;50.768;13.150;2022-08-19T07:24:17;21.47;;;17.37;;
23476;SDS011;11911;50.768;13.150;2022-08-19T07:26:44;19.17;;;16.93;;
23476;SDS011;11911;50.768;13.150;2022-08-19T07:29:10;24.73;;;18.30;;
23476;SDS011;11911;50.768;13.150;2022-08-19T07:31:37;21.57;;;17.37;;
23476;SDS011;11911;50.768;13.150;2022-08-19T07:34:04;20.87;;;17.40;;
23476;SDS011;11911;50.768;13.150;2022-08-19T07:36:34;22.57;;;17.60;;
23476;SDS011;11911;50.768;13.150;2022-08-19T07:39:04;19.53;;;15.77;;
23476;SDS011;11911;50.768;13.150;2022-08-19T07:41:32;23.37;;;16.07;;
23476;SDS011;11911;50.768;13.150;2022-08-19T07:43:59;17.37;;;15.60;;
23476;SDS011;11911;50.768;13.150;2022-08-19T07:46:30;15.57;;;14.00;;
23476;SDS011;11911;50.768;13.150;2022-08-19T07:48:56;16.00;;;13.67;;
23476;SDS011;11911;50.768;13.150;2022-08-19T07:51:22;14.50;;;12.93;;
23476;SDS011;11911;50.768;13.150;2022-08-19T07:53:48;18.83;;;14.20;;
23476;SDS011;11911;50.768;13.150;2022-08-19T07:56:15;16.00;;;12.30;;
23476;SDS011;11911;50.768;13.150;2022-08-19T07:58:42;15.37;;;13.03;;
23476;SDS011;11911;50.768;13.150;2022-08-19T08:01:12;22.50;;;14.63;;
23476;SDS011;11911;50.768;13.150;2022-08-19T08:03:40;21.97;;;15.90;;
23476;SDS011;11911;50.768;13.150;2022-08-19T08:06:24;21.90;;;15.73;;
23476;SDS011;11911;50.768;13.150;2022-08-19T08:09:09;20.97;;;17.07;;
23476;SDS011;11911;50.768;13.150;2022-08-19T08:11:53;26.80;;;18.07;;
23476;SDS011;11911;50.768;13.150;2022-08-19T08:14:23;27.50;;;18.23;;
23476;SDS011;11911;50.768;13.150;2022-08-19T08:16:54;23.93;;;18.00;;
23476;SDS011;11911;50.768;13.150;2022-08-19T08:19:20;23.70;;;17.20;;
23476;SDS011;11911;50.768;13.150;2022-08-19T08:21:48;22.13;;;18.10;;
23476;SDS011;11911;50.768;13.150;2022-08-19T08:24:16;22.63;;;17.67;;
23476;SDS011;11911;50.768;13.150;2022-08-19T08:26:42;21.13;;;16.67;;
23476;SDS011;11911;50.768;13.150;2022-08-19T08:29:11;21.23;;;15.37;;
23476;SDS011;11911;50.768;13.150;2022-08-19T08:31:38;12.60;;;10.03;;
23476;SDS011;11911;50.768;13.150;2022-08-19T08:34:05;10.73;;;9.37;;
23476;SDS011;11911;50.768;13.150;2022-08-19T08:36:31;14.17;;;12.33;;
23476;SDS011;11911;50.768;13.150;2022-08-19T08:38:58;13.93;;;11.40;;
23476;SDS011;11911;50.768;13.150;2022-08-19T08:41:33;19.57;;;15.30;;
23476;SDS011;11911;50.768;13.150;2022-08-19T08:44:17;19.30;;;17.23;;
23476;SDS011;11911;50.768;13.150;2022-08-19T08:46:53;22.33;;;18.93;;
23476;SDS011;11911;50.768;13.150;2022-08-19T08:49:29;34.10;;;20.40;;
23476;SDS011;11911;50.768;13.150;2022-08-19T08:52:07;22.97;;;19.67;;
23476;SDS011;11911;50.768;13.150;2022-08-19T08:54:47;24.40;;;18.20;;
23476;SDS011;11911;50.768;13.150;2022-08-19T08:57:15;22.07;;;19.13;;
23476;SDS011;11911;50.768;13.150;2022-08-19T08:59:52;20.90;;;18.70;;
23476;SDS011;11911;50.768;13.150;2022-08-19T09:02:19;25.20;;;19.97;;
23476;SDS011;11911;50.768;13.150;2022-08-19T09:04:45;25.67;;;21.67;;
23476;SDS011;11911;50.768;13.150;2022-08-19T09:07:25;23.70;;;20.50;;
23476;SDS011;11911;50.768;13.150;2022-08-19T09:10:22;31.27;;;22.70;;
23476;SDS011;11911;50.768;13.150;2022-08-19T09:16:05;20.53;;;18.43;;
23476;SDS011;11911;50.768;13.150;2022-08-19T09:18:38;23.20;;;20.90;;
23476;SDS011;11911;50.768;13.150;2022-08-19T09:21:08;21.90;;;19.70;;
23476;SDS011;11911;50.768;13.150;2022-08-19T09:23:35;23.20;;;20.80;;
23476;SDS011;11911;50.768;13.150;2022-08-19T09:26:05;28.80;;;22.93;;
23476;SDS011;11911;50.768;13.150;2022-08-19T09:28:33;30.70;;;22.33;;
23476;SDS011;11911;50.768;13.150;2022-08-19T09:30:59;25.53;;;21.90;;
23476;SDS011;11911;50.768;13.150;2022-08-19T09:33:25;26.27;;;21.47;;
23476;SDS011;11911;50.768;13.150;2022-08-19T09:36:00;22.97;;;19.20;;
23476;SDS011;11911;50.768;13.150;2022-08-19T09:38:28;21.37;;;18.53;;
23476;SDS011;11911;50.768;13.150;2022-08-19T09:40:53;23.20;;;18.67;;
23476;SDS011;11911;50.768;13.150;2022-08-19T09:43:19;20.10;;;18.20;;
23476;SDS011;11911;50.768;13.150;2022-08-19T09:45:44;21.33;;;19.20;;
23476;SDS011;11911;50.768;13.150;2022-08-19T09:48:10;20.53;;;18.53;;
23476;SDS011;11911;50.768;13.150;2022-08-19T09:50:35;20.37;;;17.60;;
23476;SDS011;11911;50.768;13.150;2022-08-19T09:53:03;23.93;;;19.13;;
23476;SDS011;11911;50.768;13.150;2022-08-19T09:55:30;22.03;;;19.83;;
23476;SDS011;11911;50.768;13.150;2022-08-19T09:57:55;22.97;;;20.27;;
23476;SDS011;11911;50.768;13.150;2022-08-19T10:00:21;22.50;;;20.03;;
23476;SDS011;11911;50.768;13.150;2022-08-19T10:02:46;22.60;;;20.10;;
23476;SDS011;11911;50.768;13.150;2022-08-19T10:05:12;19.60;;;17.80;;
23476;SDS011;11911;50.768;13.150;2022-08-19T10:08:00;20.60;;;18.70;;
23476;SDS011;11911;50.768;13.150;2022-08-19T10:10:26;20.03;;;17.97;;
23476;SDS011;11911;50.768;13.150;2022-08-19T10:12:52;20.67;;;18.27;;
23476;SDS011;11911;50.768;13.150;2022-08-19T10:15:17;19.00;;;17.00;;
23476;SDS011;11911;50.768;13.150;2022-08-19T10:17:45;20.83;;;17.57;;
23476;SDS011;11911;50.768;13.150;2022-08-19T10:20:11;19.20;;;17.37;;
23476;SDS011;11911;50.768;13.150;2022-08-19T10:22:37;20.67;;;16.93;;
23476;SDS011;11911;50.768;13.150;2022-08-19T10:25:03;19.00;;;15.77;;
23476;SDS011;11911;50.768;13.150;2022-08-19T10:27:29;20.83;;;18.77;;
23476;SDS011;11911;50.768;13.150;2022-08-19T10:29:55;22.00;;;17.83;;
23476;SDS011;11911;50.768;13.150;2022-08-19T10:32:21;19.90;;;18.03;;
23476;SDS011;11911;50.768;13.150;2022-08-19T10:34:47;20.03;;;17.93;;
23476;SDS011;11911;50.768;13.150;2022-08-19T10:37:14;18.30;;;16.53;;
23476;SDS011;11911;50.768;13.150;2022-08-19T10:39:40;21.00;;;16.97;;
23476;SDS011;11911;50.768;13.150;2022-08-19T10:42:06;18.77;;;17.03;;
23476;SDS011;11911;50.768;13.150;2022-08-19T10:44:32;15.73;;;14.13;;
23476;SDS011;11911;50.768;13.150;2022-08-19T10:47:00;19.37;;;16.17;;
23476;SDS011;11911;50.768;13.150;2022-08-19T10:49:26;17.90;;;16.10;;
23476;SDS011;11911;50.768;13.150;2022-08-19T10:51:52;24.37;;;17.77;;
23476;SDS011;11911;50.768;13.150;2022-08-19T10:54:36;19.47;;;17.57;;
23476;SDS011;11911;50.768;13.150;2022-08-19T10:57:20;19.63;;;17.57;;
23476;SDS011;11911;50.768;13.150;2022-08-19T10:59:49;20.73;;;17.57;;
23476;SDS011;11911;50.768;13.150;2022-08-19T11:02:14;20.40;;;18.40;;
23476;SDS011;11911;50.768;13.150;2022-08-19T11:04:40;22.37;;;17.33;;
23476;SDS011;11911;50.768;13.150;2022-08-19T11:07:06;21.37;;;18.90;;
23476;SDS011;11911;50.768;13.150;2022-08-19T11:09:36;20.17;;;18.07;;
23476;SDS011;11911;50.768;13.150;2022-08-19T11:12:06;21.73;;;18.03;;
23476;SDS011;11911;50.768;13.150;2022-08-19T11:14:33;23.17;;;18.00;;
23476;SDS011;11911;50.768;13.150;2022-08-19T11:16:59;18.90;;;17.20;;
23476;SDS011;11911;50.768;13.150;2022-08-19T11:19:25;19.73;;;17.83;;
23476;SDS011;11911;50.768;13.150;2022-08-19T11:21:51;19.70;;;17.97;;
23476;SDS011;11911;50.768;13.150;2022-08-19T11:24:19;17.83;;;15.93;;
23476;SDS011;11911;50.768;13.150;2022-08-19T11:26:48;18.10;;;16.27;;
23476;SDS011;11911;50.768;13.150;2022-08-19T11:29:16;20.03;;;16.47;;
23476;SDS011;11911;50.768;13.150;2022-08-19T11:31:45;21.17;;;17.17;;
23476;SDS011;11911;50.768;13.150;2022-08-19T11:34:13;17.50;;;15.70;;
23476;SDS011;11911;50.768;13.150;2022-08-19T11:36:44;16.73;;;15.07;;
23476;SDS011;11911;50.768;13.150;2022-08-19T11:39:13;19.40;;;17.37;;
23476;SDS011;11911;50.768;13.150;2022-08-19T11:41:41;19.87;;;17.70;;
23476;SDS011;11911;50.768;13.150;2022-08-19T11:44:06;19.57;;;17.40;;
23476;SDS011;11911;50.768;13.150;2022-08-19T11:46:33;23.10;;;16.50;;
23476;SDS011;11911;50.768;13.150;2022-08-19T11:49:00;21.53;;;18.03;;
23476;SDS011;11911;50.768;13.150;2022-08-19T11:51:28;22.83;;;18.13;;
23476;SDS011;11911;50.768;13.150;2022-08-19T11:53:55;25.10;;;22.40;;
23476;SDS011;11911;50.768;13.150;2022-08-19T11:56:22;27.83;;;25.00;;
23476;SDS011;11911;50.768;13.150;2022-08-19T11:58:49;32.80;;;27.43;;
23476;SDS011;11911;50.768;13.150;2022-08-19T12:01:15;33.87;;;29.43;;
23476;SDS011;11911;50.768;13.150;2022-08-19T12:03:44;45.50;;;29.27;;
23476;SDS011;11911;50.768;13.150;2022-08-19T12:06:12;34.57;;;28.97;;
23476;SDS011;11911;50.768;13.150;2022-08-19T12:08:40;35.27;;;29.30;;
23476;SDS011;11911;50.768;13.150;2022-08-19T12:11:06;31.23;;;27.87;;
23476;SDS011;11911;50.768;13.150;2022-08-19T12:13:35;33.77;;;25.93;;
23476;SDS011;11911;50.768;13.150;2022-08-19T12:16:12;27.53;;;24.63;;
23476;SDS011;11911;50.768;13.150;2022-08-19T12:18:41;25.43;;;22.83;;
23476;SDS011;11911;50.768;13.150;2022-08-19T12:21:10;27.80;;;24.07;;
23476;SDS011;11911;50.768;13.150;2022-08-19T12:23:38;26.80;;;23.27;;
23476;SDS011;11911;50.768;13.150;2022-08-19T12:26:04;25.90;;;23.10;;
23476;SDS011;11911;50.768;13.150;2022-08-19T12:28:30;27.90;;;23.27;;
23476;SDS011;11911;50.768;13.150;2022-08-19T12:30:56;26.90;;;22.20;;
23476;SDS011;11911;50.768;13.150;2022-08-19T12:33:21;26.90;;;23.60;;
23476;SDS011;11911;50.768;13.150;2022-08-19T12:35:50;34.00;;;25.60;;
23476;SDS011;11911;50.768;13.150;2022-08-19T12:38:16;32.03;;;28.57;;
23476;SDS011;11911;50.768;13.150;2022-08-19T12:40:46;37.77;;;29.67;;
23476;SDS011;11911;50.768;13.150;2022-08-19T12:43:13;40.03;;;33.60;;
23476;SDS011;11911;50.768;13.150;2022-08-19T12:45:40;44.53;;;30.97;;
23476;SDS011;11911;50.768;13.150;2022-08-19T12:48:06;45.73;;;32.83;;
23476;SDS011;11911;50.768;13.150;2022-08-19T12:50:32;45.57;;;33.30;;
23476;SDS011;11911;50.768;13.150;2022-08-19T12:52:58;42.30;;;31.23;;
23476;SDS011;11911;50.768;13.150;2022-08-19T12:55:23;42.90;;;33.27;;
23476;SDS011;11911;50.768;13.150;2022-08-19T12:57:50;40.60;;;31.33;;
23476;SDS011;11911;50.768;13.150;2022-08-19T13:00:16;47.43;;;33.77;;
23476;SDS011;11911;50.768;13.150;2022-08-19T13:02:46;39.17;;;33.00;;
23476;SDS011;11911;50.768;13.150;2022-08-19T13:05:15;48.20;;;34.17;;
23476;SDS011;11911;50.768;13.150;2022-08-19T13:07:44;48.03;;;36.47;;
23476;SDS011;11911;50.768;13.150;2022-08-19T13:10:11;49.00;;;35.37;;
23476;SDS011;11911;50.768;13.150;2022-08-19T13:12:40;52.57;;;36.47;;
23476;SDS011;11911;50.768;13.150;2022-08-19T13:15:06;77.00;;;35.63;;
23476;SDS011;11911;50.768;13.150;2022-08-19T13:17:33;70.90;;;36.90;;
23476;SDS011;11911;50.768;13.150;2022-08-19T13:20:00;70.13;;;35.97;;
23476;SDS011;11911;50.768;13.150;2022-08-19T13:22:26;89.83;;;34.90;;
23476;SDS011;11911;50.768;13.150;2022-08-19T13:24:51;102.33;;;35.53;;
23476;SDS011;11911;50.768;13.150;2022-08-19T13:27:17;86.37;;;37.17;;
23476;SDS011;11911;50.768;13.150;2022-08-19T13:29:43;62.53;;;35.27;;
23476;SDS011;11911;50.768;13.150;2022-08-19T13:32:28;61.83;;;38.07;;
23476;SDS011;11911;50.768;13.150;2022-08-19T13:35:13;50.97;;;35.73;;
23476;SDS011;11911;50.768;13.150;2022-08-19T13:37:39;42.77;;;34.63;;
23476;SDS011;11911;50.768;13.150;2022-08-19T13:40:18;57.40;;;36.30;;
23476;SDS011;11911;50.768;13.150;2022-08-19T13:42:49;49.50;;;36.90;;
23476;SDS011;11911;50.768;13.150;2022-08-19T13:45:17;50.10;;;36.93;;
23476;SDS011;11911;50.768;13.150;2022-08-19T13:47:46;48.80;;;34.20;;
23476;SDS011;11911;50.768;13.150;2022-08-19T13:50:13;45.47;;;34.97;;
23476;SDS011;11911;50.768;13.150;2022-08-19T13:52:41;51.67;;;38.77;;
23476;SDS011;11911;50.768;13.150;2022-08-19T13:55:07;50.17;;;39.20;;
23476;SDS011;11911;50.768;13.150;2022-08-19T13:57:34;50.83;;;40.40;;
23476;SDS011;11911;50.768;13.150;2022-08-19T14:00:01;55.80;;;38.00;;
23476;SDS011;11911;50.768;13.150;2022-08-19T14:02:28;54.93;;;40.73;;
23476;SDS011;11911;50.768;13.150;2022-08-19T14:04:53;58.47;;;42.80;;
23476;SDS011;11911;50.768;13.150;2022-08-19T14:07:19;59.70;;;41.57;;
23476;SDS011;11911;50.768;13.150;2022-08-19T14:09:45;57.03;;;42.50;;
23476;SDS011;11911;50.768;13.150;2022-08-19T14:12:10;61.53;;;42.70;;
23476;SDS011;11911;50.768;13.150;2022-08-19T14:14:36;61.23;;;40.33;;
23476;SDS011;11911;50.768;13.150;2022-08-19T14:17:05;56.83;;;39.77;;
23476;SDS011;11911;50.768;13.150;2022-08-19T14:19:31;71.17;;;41.70;;
23476;SDS011;11911;50.768;13.150;2022-08-19T14:21:57;61.57;;;44.30;;
23476;SDS011;11911;50.768;13.150;2022-08-19T14:24:23;75.93;;;42.50;;
23476;SDS011;11911;50.768;13.150;2022-08-19T14:26:48;61.83;;;41.43;;
23476;SDS011;11911;50.768;13.150;2022-08-19T14:29:13;58.33;;;43.73;;
23476;SDS011;11911;50.768;13.150;2022-08-19T14:31:39;65.60;;;43.20;;
23476;SDS011;11911;50.768;13.150;2022-08-19T14:34:05;76.13;;;42.07;;
23476;SDS011;11911;50.768;13.150;2022-08-19T14:36:31;64.80;;;42.63;;
23476;SDS011;11911;50.768;13.150;2022-08-19T14:38:59;72.50;;;41.40;;
23476;SDS011;11911;50.768;13.150;2022-08-19T14:41:25;57.03;;;42.73;;
23476;SDS011;11911;50.768;13.150;2022-08-19T14:43:52;62.80;;;44.17;;
23476;SDS011;11911;50.768;13.150;2022-08-19T14:46:20;62.13;;;42.40;;
23476;SDS011;11911;50.768;13.150;2022-08-19T14:48:47;54.50;;;40.87;;
23476;SDS011;11911;50.768;13.150;2022-08-19T14:51:14;54.80;;;40.30;;
23476;SDS011;11911;50.768;13.150;2022-08-19T14:53:40;52.53;;;41.27;;
23476;SDS011;11911;50.768;13.150;2022-08-19T14:56:07;54.40;;;39.13;;
23476;SDS011;11911;50.768;13.150;2022-08-19T14:58:36;51.00;;;39.50;;
23476;SDS011;11911;50.768;13.150;2022-08-19T15:01:02;51.97;;;39.67;;
23476;SDS011;11911;50.768;13.150;2022-08-19T15:03:28;48.97;;;38.83;;
23476;SDS011;11911;50.768;13.150;2022-08-19T15:05:54;54.93;;;38.73;;
23476;SDS011;11911;50.768;13.150;2022-08-19T15:08:21;59.93;;;41.40;;
23476;SDS011;11911;50.768;13.150;2022-08-19T15:10:49;65.87;;;42.10;;
23476;SDS011;11911;50.768;13.150;2022-08-19T15:13:15;55.50;;;41.13;;
23476;SDS011;11911;50.768;13.150;2022-08-19T15:15:41;57.40;;;42.17;;
23476;SDS011;11911;50.768;13.150;2022-08-19T15:18:06;60.57;;;41.10;;
23476;SDS011;11911;50.768;13.150;2022-08-19T15:20:32;52.30;;;38.47;;
23476;SDS011;11911;50.768;13.150;2022-08-19T15:22:57;51.53;;;39.67;;
23476;SDS011;11911;50.768;13.150;2022-08-19T15:25:26;51.13;;;36.90;;
23476;SDS011;11911;50.768;13.150;2022-08-19T15:27:51;51.23;;;35.80;;
23476;SDS011;11911;50.768;13.150;2022-08-19T15:30:22;42.63;;;34.80;;
23476;SDS011;11911;50.768;13.150;2022-08-19T15:32:49;41.07;;;33.20;;
23476;SDS011;11911;50.768;13.150;2022-08-19T15:35:15;45.03;;;34.83;;
23476;SDS011;11911;50.768;13.150;2022-08-19T15:37:43;45.40;;;35.70;;
23476;SDS011;11911;50.768;13.150;2022-08-19T15:40:09;46.47;;;38.13;;
23476;SDS011;11911;50.768;13.150;2022-08-19T15:42:36;50.97;;;36.13;;
23476;SDS011;11911;50.768;13.150;2022-08-19T15:45:06;48.43;;;37.30;;
23476;SDS011;11911;50.768;13.150;2022-08-19T15:47:34;48.73;;;36.00;;
23476;SDS011;11911;50.768;13.150;2022-08-19T15:50:04;46.80;;;37.40;;
23476;SDS011;11911;50.768;13.150;2022-08-19T15:52:30;51.87;;;37.07;;
23476;SDS011;11911;50.768;13.150;2022-08-19T15:54:56;44.77;;;35.87;;
23476;SDS011;11911;50.768;13.150;2022-08-19T15:57:21;44.63;;;36.07;;
23476;SDS011;11911;50.768;13.150;2022-08-19T15:59:46;50.10;;;36.60;;
23476;SDS011;11911;50.768;13.150;2022-08-19T16:02:31;55.90;;;36.87;;
23476;SDS011;11911;50.768;13.150;2022-08-19T16:05:17;46.27;;;36.27;;
23476;SDS011;11911;50.768;13.150;2022-08-19T16:08:04;55.40;;;39.67;;
23476;SDS011;11911;50.768;13.150;2022-08-19T16:10:30;52.73;;;38.13;;
23476;SDS011;11911;50.768;13.150;2022-08-19T16:12:56;49.60;;;38.87;;
23476;SDS011;11911;50.768;13.150;2022-08-19T16:15:24;53.27;;;40.23;;
23476;SDS011;11911;50.768;13.150;2022-08-19T16:17:51;55.87;;;41.90;;
23476;SDS011;11911;50.768;13.150;2022-08-19T16:20:18;52.97;;;42.60;;
23476;SDS011;11911;50.768;13.150;2022-08-19T16:22:46;55.90;;;42.33;;
23476;SDS011;11911;50.768;13.150;2022-08-19T16:25:12;59.10;;;42.93;;
23476;SDS011;11911;50.768;13.150;2022-08-19T16:27:38;51.77;;;42.07;;
23476;SDS011;11911;50.768;13.150;2022-08-19T16:30:05;53.20;;;40.43;;
23476;SDS011;11911;50.768;13.150;2022-08-19T16:32:32;55.80;;;40.33;;
23476;SDS011;11911;50.768;13.150;2022-08-19T16:34:58;57.37;;;39.53;;
23476;SDS011;11911;50.768;13.150;2022-08-19T16:37:24;48.83;;;38.73;;
23476;SDS011;11911;50.768;13.150;2022-08-19T16:39:49;54.27;;;40.20;;
23476;SDS011;11911;50.768;13.150;2022-08-19T16:42:15;56.20;;;40.80;;
23476;SDS011;11911;50.768;13.150;2022-08-19T16:44:42;52.27;;;38.43;;
23476;SDS011;11911;50.768;13.150;2022-08-19T16:47:09;46.43;;;39.50;;
23476;SDS011;11911;50.768;13.150;2022-08-19T16:49:36;54.23;;;39.33;;
23476;SDS011;11911;50.768;13.150;2022-08-19T16:52:02;56.47;;;42.47;;
23476;SDS011;11911;50.768;13.150;2022-08-19T16:54:29;52.47;;;40.43;;
23476;SDS011;11911;50.768;13.150;2022-08-19T16:56:55;50.77;;;40.20;;
23476;SDS011;11911;50.768;13.150;2022-08-19T16:59:21;60.80;;;42.97;;
23476;SDS011;11911;50.768;13.150;2022-08-19T17:01:48;56.50;;;42.07;;
23476;SDS011;11911;50.768;13.150;2022-08-19T17:04:13;53.00;;;42.13;;
23476;SDS011;11911;50.768;13.150;2022-08-19T17:06:39;58.97;;;42.77;;
23476;SDS011;11911;50.768;13.150;2022-08-19T17:09:05;55.40;;;42.27;;
23476;SDS011;11911;50.768;13.150;2022-08-19T17:11:32;63.37;;;42.50;;
23476;SDS011;11911;50.768;13.150;2022-08-19T17:13:58;57.87;;;43.37;;
23476;SDS011;11911;50.768;13.150;2022-08-19T17:16:26;55.00;;;40.63;;
23476;SDS011;11911;50.768;13.150;2022-08-19T17:18:53;51.63;;;41.97;;
23476;SDS011;11911;50.768;13.150;2022-08-19T17:21:23;57.13;;;40.70;;
23476;SDS011;11911;50.768;13.150;2022-08-19T17:23:55;55.53;;;40.17;;
23476;SDS011;11911;50.768;13.150;2022-08-19T17:26:22;54.27;;;42.77;;
23476;SDS011;11911;50.768;13.150;2022-08-19T17:28:50;54.27;;;42.00;;
23476;SDS011;11911;50.768;13.150;2022-08-19T17:31:18;54.77;;;41.07;;
23476;SDS011;11911;50.768;13.150;2022-08-19T17:33:47;56.73;;;42.70;;
23476;SDS011;11911;50.768;13.150;2022-08-19T17:36:13;49.77;;;39.90;;
23476;SDS011;11911;50.768;13.150;2022-08-19T17:38:38;55.80;;;41.07;;
23476;SDS011;11911;50.768;13.150;2022-08-19T17:41:04;59.10;;;40.90;;
23476;SDS011;11911;50.768;13.150;2022-08-19T17:43:31;54.23;;;39.70;;
23476;SDS011;11911;50.768;13.150;2022-08-19T17:45:58;46.40;;;38.07;;
23476;SDS011;11911;50.768;13.150;2022-08-19T17:48:27;61.07;;;41.70;;
23476;SDS011;11911;50.768;13.150;2022-08-19T17:51:11;48.33;;;40.07;;
23476;SDS011;11911;50.768;13.150;2022-08-19T17:53:42;53.37;;;39.27;;
23476;SDS011;11911;50.768;13.150;2022-08-19T17:56:08;47.03;;;37.60;;
23476;SDS011;11911;50.768;13.150;2022-08-19T17:58:34;47.77;;;36.80;;
23476;SDS011;11911;50.768;13.150;2022-08-19T18:01:00;47.97;;;37.23;;
23476;SDS011;11911;50.768;13.150;2022-08-19T18:03:26;51.10;;;36.20;;
23476;SDS011;11911;50.768;13.150;2022-08-19T18:05:54;48.63;;;35.10;;
23476;SDS011;11911;50.768;13.150;2022-08-19T18:08:20;45.53;;;34.07;;
23476;SDS011;11911;50.768;13.150;2022-08-19T18:10:47;45.73;;;36.00;;
23476;SDS011;11911;50.768;13.150;2022-08-19T18:13:13;50.80;;;35.23;;
23476;SDS011;11911;50.768;13.150;2022-08-19T18:15:38;52.70;;;36.97;;
23476;SDS011;11911;50.768;13.150;2022-08-19T18:18:05;51.47;;;35.77;;